createdAt,value
2023-04-22T00:01:35.407Z,94620.75
2023-04-22T00:04:18.861Z,94621.59
2023-04-22T00:07:02.443Z,94622.78
2023-04-22T00:09:47.047Z,94622.19
2023-04-22T00:12:30.190Z,94614.03
2023-04-22T00:15:13.905Z,94615.66
2023-04-22T00:17:57.259Z,94612.84
2023-04-22T00:20:40.705Z,94613.91
2023-04-22T00:23:23.930Z,94616.88
2023-04-22T00:26:08.583Z,94610.16
2023-04-22T00:28:51.810Z,94606.00
2023-04-22T00:31:35.013Z,94602.63
2023-04-22T00:34:19.733Z,94606.19
2023-04-22T00:37:03.756Z,94594.50
2023-04-22T00:39:46.771Z,94611.34
2023-04-22T00:42:31.742Z,94610.53
2023-04-22T00:45:18.179Z,94615.69
2023-04-22T00:48:01.928Z,94621.47
2023-04-22T00:50:45.061Z,94616.34
2023-04-22T00:53:28.219Z,94625.66
2023-04-22T00:56:12.786Z,94623.31
2023-04-22T00:59:00.202Z,94625.91
2023-04-22T01:01:44.386Z,94624.28
2023-04-22T01:04:27.477Z,94623.69
2023-04-22T01:07:11.985Z,94622.28
2023-04-22T01:09:55.071Z,94626.25
2023-04-22T01:12:38.322Z,94628.91
2023-04-22T01:15:22.963Z,94627.91
2023-04-22T01:18:06.598Z,94629.34
2023-04-22T01:20:50.289Z,94631.72
2023-04-22T01:23:35.080Z,94626.38
2023-04-22T01:26:18.299Z,94628.16
2023-04-22T01:29:03.391Z,94628.94
2023-04-22T01:31:47.574Z,94633.50
2023-04-22T01:34:31.673Z,94635.22
2023-04-22T01:37:14.811Z,94633.81
2023-04-22T01:40:00.445Z,94637.00
2023-04-22T01:42:43.732Z,94632.63
2023-04-22T01:45:27.176Z,94638.59
2023-04-22T01:48:11.337Z,94632.47
2023-04-22T01:50:54.530Z,94623.72
2023-04-22T01:53:37.811Z,94625.91
2023-04-22T01:56:22.322Z,94632.22
2023-04-22T01:59:05.444Z,94628.63
2023-04-22T02:01:48.778Z,94626.63
2023-04-22T02:04:31.909Z,94623.84
2023-04-22T02:07:15.059Z,94628.22
2023-04-22T02:09:58.171Z,94634.19
2023-04-22T02:12:42.653Z,94630.97
2023-04-22T02:15:25.873Z,94630.16
2023-04-22T02:18:10.281Z,94630.78
2023-04-22T02:20:55.488Z,94628.56
2023-04-22T02:23:40.061Z,94628.94
2023-04-22T02:26:23.797Z,94632.13
2023-04-22T02:29:08.386Z,94624.97
2023-04-22T02:31:51.754Z,94621.41
2023-04-22T02:34:34.961Z,94623.31
2023-04-22T02:37:19.232Z,94622.31
2023-04-22T02:40:03.810Z,94631.81
2023-04-22T02:42:48.737Z,94632.41
2023-04-22T02:45:33.272Z,94633.00
2023-04-22T02:48:16.386Z,94639.34
2023-04-22T02:50:59.541Z,94627.88
2023-04-22T02:53:43.181Z,94634.03
2023-04-22T02:56:26.824Z,94634.47
2023-04-22T02:59:09.877Z,94636.53
2023-04-22T03:01:54.469Z,94640.13
2023-04-22T03:04:38.202Z,94639.91
2023-04-22T03:07:21.450Z,94649.69
2023-04-22T03:10:05.099Z,94642.16
2023-04-22T03:12:48.390Z,94653.28
2023-04-22T03:15:31.543Z,94645.75
2023-04-22T03:18:16.241Z,94641.41
2023-04-22T03:21:00.977Z,94649.94
2023-04-22T03:23:44.167Z,94644.97
2023-04-22T03:26:27.256Z,94647.38
2023-04-22T03:29:10.439Z,94646.56
2023-04-22T03:31:53.709Z,94656.28
2023-04-22T03:34:38.379Z,94666.41
2023-04-22T03:37:21.430Z,94661.66
2023-04-22T03:40:05.841Z,94662.78
2023-04-22T03:42:48.961Z,94661.59
2023-04-22T03:45:32.385Z,94662.97
2023-04-22T03:48:15.462Z,94662.59
2023-04-22T03:51:00.074Z,94671.69
2023-04-22T03:53:43.428Z,94670.31
2023-04-22T03:56:26.550Z,94673.25
2023-04-22T03:59:09.701Z,94666.34
2023-04-22T04:01:55.168Z,94671.09
2023-04-22T04:04:38.739Z,94676.25
2023-04-22T04:07:23.361Z,94669.88
2023-04-22T04:10:07.898Z,94676.84
2023-04-22T04:12:51.503Z,94670.09
2023-04-22T04:15:35.761Z,94674.88
2023-04-22T04:18:18.964Z,94681.00
2023-04-22T04:21:02.102Z,94682.56
2023-04-22T04:23:46.697Z,94677.41
2023-04-22T04:26:30.002Z,94684.38
2023-04-22T04:29:13.845Z,94685.75
2023-04-22T04:31:56.951Z,94684.16
2023-04-22T04:34:40.021Z,94697.63
2023-04-22T04:37:23.607Z,94702.97
2023-04-22T04:40:10.371Z,94703.91
2023-04-22T04:42:55.807Z,94709.44
2023-04-22T04:45:39.329Z,94708.19
2023-04-22T04:48:25.066Z,94708.53
2023-04-22T04:51:08.166Z,94712.56
2023-04-22T04:53:51.379Z,94720.03
2023-04-22T04:56:35.917Z,94726.28
2023-04-22T04:59:18.952Z,94724.41
2023-04-22T05:02:02.090Z,94729.06
2023-04-22T05:04:45.305Z,94724.31
2023-04-22T05:07:28.480Z,94728.81
2023-04-22T05:10:12.518Z,94726.88
2023-04-22T05:12:57.106Z,94731.63
2023-04-22T05:15:40.312Z,94731.47
2023-04-22T05:18:23.614Z,94740.84
2023-04-22T05:21:07.020Z,94739.88
2023-04-22T05:23:50.165Z,94736.47
2023-04-22T05:26:33.371Z,94728.97
2023-04-22T05:29:18.140Z,94728.13
2023-04-22T05:32:01.351Z,94729.97
2023-04-22T05:34:44.919Z,94725.53
2023-04-22T05:37:29.290Z,94736.94
2023-04-22T05:40:13.804Z,94730.50
2023-04-22T05:42:58.180Z,94726.19
2023-04-22T05:45:43.237Z,94729.63
2023-04-22T05:48:26.512Z,94731.53
2023-04-22T05:51:09.713Z,94726.88
2023-04-22T05:53:52.905Z,94724.00
2023-04-22T05:56:36.083Z,94721.56
2023-04-22T05:59:21.080Z,94726.47
2023-04-22T06:02:06.474Z,94731.53
2023-04-22T06:04:50.481Z,94729.19
2023-04-22T06:07:34.153Z,94727.56
2023-04-22T06:10:17.601Z,94725.72
2023-04-22T06:13:01.337Z,94725.28
2023-04-22T06:15:44.687Z,94726.63
2023-04-22T06:18:29.553Z,94715.44
2023-04-22T06:21:13.048Z,94717.47
2023-04-22T06:23:56.645Z,94718.63
2023-04-22T06:26:39.805Z,94722.41
2023-04-22T06:29:22.987Z,94721.13
2023-04-22T06:32:09.236Z,94729.53
2023-04-22T06:34:53.795Z,94730.84
2023-04-22T06:37:37.019Z,94734.38
2023-04-22T06:40:20.249Z,94727.75
2023-04-22T06:43:03.858Z,94734.88
2023-04-22T06:45:47.028Z,94720.81
2023-04-22T06:48:30.120Z,94713.09
2023-04-22T06:51:15.171Z,94724.59
2023-04-22T06:53:58.815Z,94718.56
2023-04-22T06:56:42.427Z,94724.13
2023-04-22T06:59:26.072Z,94719.84
2023-04-22T07:02:10.205Z,94714.38
2023-04-22T07:04:53.409Z,94723.34
2023-04-22T07:07:38.362Z,94725.59
2023-04-22T07:10:21.993Z,94724.69
2023-04-22T07:13:05.088Z,94721.94
2023-04-22T07:15:48.332Z,94717.28
2023-04-22T07:18:32.152Z,94735.69
2023-04-22T07:21:15.450Z,94723.63
2023-04-22T07:24:01.201Z,94723.06
2023-04-22T07:26:45.609Z,94718.59
2023-04-22T07:29:28.684Z,94733.03
2023-04-22T07:32:14.640Z,94730.19
2023-04-22T07:34:57.790Z,94735.94
2023-04-22T07:37:40.952Z,94734.66
2023-04-22T07:40:25.728Z,94744.13
2023-04-22T07:43:09.240Z,94735.75
2023-04-22T07:45:52.680Z,94729.00
2023-04-22T07:48:36.804Z,94728.94
2023-04-22T07:51:20.047Z,94721.75
2023-04-22T07:54:03.673Z,94730.31
2023-04-22T07:56:48.132Z,94727.19
2023-04-22T07:59:31.252Z,94726.59
2023-04-22T08:02:14.663Z,94719.31
2023-04-22T08:05:18.439Z,94723.91
2023-04-22T08:08:01.902Z,94721.16
2023-04-22T08:10:45.240Z,94721.06
2023-04-22T08:13:29.754Z,94720.97
2023-04-22T08:16:12.983Z,94721.28
2023-04-22T08:18:57.567Z,94709.66
2023-04-22T08:21:40.771Z,94713.22
2023-04-22T08:24:25.256Z,94722.06
2023-04-22T08:27:08.839Z,94714.22
2023-04-22T08:29:53.449Z,94701.84
2023-04-22T08:32:36.959Z,94715.75
2023-04-22T08:35:20.295Z,94707.31
2023-04-22T08:38:03.705Z,94710.44
2023-04-22T08:40:47.932Z,94695.75
2023-04-22T08:43:31.122Z,94695.78
2023-04-22T08:46:21.060Z,94687.19
2023-04-22T08:49:05.503Z,94680.53
2023-04-22T08:51:50.510Z,94682.38
2023-04-22T08:54:34.445Z,94677.69
2023-04-22T08:57:19.984Z,94669.53
2023-04-22T09:00:05.427Z,94679.44
2023-04-22T09:02:51.932Z,94680.13
2023-04-22T09:05:35.998Z,94662.06
2023-04-22T09:08:19.326Z,94666.41
2023-04-22T09:11:02.621Z,94657.75
2023-04-22T09:13:45.961Z,94660.47
2023-04-22T09:16:32.019Z,94663.41
2023-04-22T09:19:17.676Z,94660.06
2023-04-22T09:22:01.428Z,94649.81
2023-04-22T09:24:46.255Z,94652.69
2023-04-22T09:27:30.268Z,94655.66
2023-04-22T09:30:14.878Z,94644.44
2023-04-22T09:33:00.576Z,94645.16
2023-04-22T09:35:45.577Z,94641.94
2023-04-22T09:38:33.260Z,94640.00
2023-04-22T09:41:16.433Z,94646.69
2023-04-22T09:44:03.334Z,94633.28
2023-04-22T09:46:46.813Z,94633.16
2023-04-22T09:49:30.061Z,94641.00
2023-04-22T09:52:24.632Z,94643.16
2023-04-22T09:55:10.677Z,94644.53
2023-04-22T09:57:55.884Z,94640.25
2023-04-22T10:00:42.858Z,94631.16
2023-04-22T10:03:34.516Z,94642.50
2023-04-22T10:06:17.707Z,94635.38
2023-04-22T10:09:02.780Z,94636.19
2023-04-22T10:11:46.004Z,94640.63
2023-04-22T10:14:29.759Z,94650.84
2023-04-22T10:17:14.875Z,94638.31
2023-04-22T10:19:58.616Z,94639.72
2023-04-22T10:22:43.800Z,94639.78
2023-04-22T10:25:28.896Z,94635.44
2023-04-22T10:28:14.561Z,94628.81
2023-04-22T10:30:58.391Z,94623.38
2023-04-22T10:33:42.633Z,94632.56
2023-04-22T10:36:27.868Z,94622.78
2023-04-22T10:39:18.248Z,94633.91
2023-04-22T10:42:12.992Z,94628.94
2023-04-22T10:45:02.289Z,94618.47
2023-04-22T10:47:46.318Z,94620.69
2023-04-22T10:50:33.406Z,94610.44
2023-04-22T10:53:40.818Z,94618.63
2023-04-22T10:56:24.515Z,94604.78
2023-04-22T10:59:18.535Z,94617.41
2023-04-22T11:02:02.846Z,94618.28
2023-04-22T11:04:46.446Z,94611.38
2023-04-22T11:07:35.837Z,94623.13
2023-04-22T11:10:48.531Z,94612.31
2023-04-22T11:13:31.789Z,94617.78
2023-04-22T11:16:16.699Z,94609.97
2023-04-22T11:19:00.799Z,94608.69
2023-04-22T11:21:44.750Z,94617.31
2023-04-22T11:24:28.128Z,94614.94
2023-04-22T11:27:12.662Z,94620.59
2023-04-22T11:30:02.822Z,94629.13
2023-04-22T11:32:49.942Z,94626.91
2023-04-22T11:35:34.565Z,94625.72
2023-04-22T11:38:17.831Z,94634.16
2023-04-22T11:41:01.161Z,94641.88
2023-04-22T11:43:51.303Z,94634.25
2023-04-22T11:46:39.129Z,94627.28
2023-04-22T11:49:27.017Z,94627.81
2023-04-22T11:52:10.114Z,94640.97
2023-04-22T11:54:55.840Z,94641.41
2023-04-22T11:57:39.400Z,94644.78
2023-04-22T12:00:23.505Z,94649.63
2023-04-22T12:03:09.297Z,94643.66
2023-04-22T12:05:56.239Z,94650.03
2023-04-22T12:08:42.533Z,94642.31
2023-04-22T12:11:26.226Z,94648.81
2023-04-22T12:14:09.898Z,94646.00
2023-04-22T12:16:53.191Z,94641.56
2023-04-22T12:19:36.542Z,94641.28
2023-04-22T12:22:27.486Z,94654.66
2023-04-22T12:25:11.310Z,94651.56
2023-04-22T12:27:54.786Z,94653.66
2023-04-22T12:30:38.585Z,94647.81
2023-04-22T12:33:22.380Z,94642.22
2023-04-22T12:36:05.869Z,94634.44
2023-04-22T12:38:51.795Z,94634.41
2023-04-22T12:41:35.015Z,94646.56
2023-04-22T12:44:18.771Z,94649.00
2023-04-22T12:47:02.046Z,94657.34
2023-04-22T12:49:47.446Z,94649.06
2023-04-22T12:52:31.362Z,94651.88
2023-04-22T12:55:16.053Z,94650.06
2023-04-22T12:57:59.597Z,94642.94
2023-04-22T13:00:42.745Z,94656.84
2023-04-22T13:03:26.318Z,94643.19
2023-04-22T13:06:09.865Z,94642.91
2023-04-22T13:08:53.853Z,94650.28
2023-04-22T13:11:38.500Z,94638.75
2023-04-22T13:14:21.759Z,94645.75
2023-04-22T13:17:05.039Z,94639.75
2023-04-22T13:19:50.880Z,94639.31
2023-04-22T13:22:34.423Z,94644.53
2023-04-22T13:25:18.000Z,94635.69
2023-04-22T13:28:02.685Z,94644.59
2023-04-22T13:30:45.949Z,94640.91
2023-04-22T13:33:29.974Z,94641.19
2023-04-22T13:36:13.289Z,94633.59
2023-04-22T13:38:56.792Z,94634.13
2023-04-22T13:41:40.534Z,94629.91
2023-04-22T13:44:25.786Z,94639.03
2023-04-22T13:47:08.953Z,94641.13
2023-04-22T13:49:52.564Z,94643.28
2023-04-22T13:52:35.865Z,94647.69
2023-04-22T13:55:19.260Z,94645.06
2023-04-22T13:58:02.662Z,94644.03
2023-04-22T14:00:49.300Z,94632.50
2023-04-22T14:03:33.028Z,94638.72
2023-04-22T14:06:16.326Z,94632.41
2023-04-22T14:09:02.425Z,94634.06
2023-04-22T14:11:49.239Z,94630.91
2023-04-22T14:14:32.687Z,94636.13
2023-04-22T14:17:17.392Z,94635.28
2023-04-22T14:20:02.119Z,94634.53
2023-04-22T14:22:45.540Z,94620.13
2023-04-22T14:25:28.976Z,94623.56
2023-04-22T14:28:12.502Z,94626.66
2023-04-22T14:30:56.191Z,94631.84
2023-04-22T14:33:41.315Z,94624.34
2023-04-22T14:36:24.522Z,94618.06
2023-04-22T14:39:07.916Z,94627.75
2023-04-22T14:41:51.097Z,94622.50
2023-04-22T14:44:34.402Z,94628.81
2023-04-22T14:47:17.815Z,94625.16
2023-04-22T14:50:02.819Z,94626.16
2023-04-22T14:52:46.345Z,94628.81
2023-04-22T14:55:31.316Z,94629.84
2023-04-22T14:58:15.088Z,94626.47
2023-04-22T15:00:58.914Z,94631.47
2023-04-22T15:03:42.393Z,94626.72
2023-04-22T15:06:30.378Z,94625.91
2023-04-22T15:09:13.858Z,94626.44
2023-04-22T15:11:59.683Z,94623.44
2023-04-22T15:14:43.839Z,94621.53
2023-04-22T15:17:27.574Z,94622.13
2023-04-22T15:20:11.869Z,94625.50
2023-04-22T15:22:56.487Z,94637.28
2023-04-22T15:25:41.233Z,94624.31
2023-04-22T15:28:25.264Z,94620.53
2023-04-22T15:31:08.554Z,94629.66
2023-04-22T15:33:52.347Z,94626.25
2023-04-22T15:36:37.820Z,94625.50
2023-04-22T15:39:22.677Z,94632.31
2023-04-22T15:42:05.882Z,94637.56
2023-04-22T15:44:50.332Z,94640.22
2023-04-22T15:47:34.936Z,94648.75
2023-04-22T15:50:18.621Z,94644.78
2023-04-22T15:53:01.722Z,94655.56
2023-04-22T15:55:48.097Z,94653.25
2023-04-22T15:58:34.454Z,94657.78
2023-04-22T16:01:19.759Z,94664.03
2023-04-22T16:04:04.862Z,94665.50
2023-04-22T16:06:50.655Z,94661.56
2023-04-22T16:09:34.308Z,94668.31
2023-04-22T16:12:20.646Z,94668.00
2023-04-22T16:15:03.954Z,94671.88
2023-04-22T16:17:47.265Z,94677.56
2023-04-22T16:20:31.005Z,94679.84
2023-04-22T16:23:14.091Z,94683.00
2023-04-22T16:25:58.501Z,94679.00
2023-04-22T16:28:43.097Z,94675.00
2023-04-22T16:31:27.944Z,94678.09
2023-04-22T16:34:11.189Z,94686.66
2023-04-22T16:36:54.342Z,94695.50
2023-04-22T16:39:37.772Z,94693.91
2023-04-22T16:42:21.140Z,94701.13
2023-04-22T16:45:08.077Z,94703.53
2023-04-22T16:47:51.297Z,94694.28
2023-04-22T16:50:34.777Z,94704.66
2023-04-22T16:53:18.380Z,94703.69
2023-04-22T16:56:01.735Z,94703.88
2023-04-22T16:58:45.936Z,94708.81
2023-04-22T17:01:34.395Z,94718.75
2023-04-22T17:04:18.348Z,94730.47
2023-04-22T17:07:01.967Z,94728.50
2023-04-22T17:09:45.502Z,94739.28
2023-04-22T17:12:28.936Z,94743.34
2023-04-22T17:15:13.288Z,94744.72
2023-04-22T17:17:58.232Z,94756.22
2023-04-22T17:20:41.481Z,94752.78
2023-04-22T17:23:24.641Z,94756.31
2023-04-22T17:26:08.009Z,94772.38
2023-04-22T17:28:51.266Z,94775.81
2023-04-22T17:31:34.926Z,94779.19
2023-04-22T17:34:19.852Z,94775.47
2023-04-22T17:37:03.275Z,94778.00
2023-04-22T17:39:46.418Z,94778.19
2023-04-22T17:42:38.800Z,94779.03
2023-04-22T17:45:30.778Z,94787.72
2023-04-22T17:48:14.249Z,94794.47
2023-04-22T17:51:01.516Z,94788.44
2023-04-22T17:53:44.591Z,94793.91
2023-04-22T17:56:28.260Z,94803.41
2023-04-22T17:59:12.546Z,94799.47
2023-04-22T18:01:56.032Z,94806.03
2023-04-22T18:04:41.831Z,94810.00
2023-04-22T18:07:26.571Z,94814.31
2023-04-22T18:10:11.845Z,94825.84
2023-04-22T18:12:55.126Z,94825.97
2023-04-22T18:15:40.539Z,94822.81
2023-04-22T18:18:23.791Z,94831.97
2023-04-22T18:21:07.467Z,94829.59
2023-04-22T18:23:53.460Z,94829.91
2023-04-22T18:26:36.829Z,94832.94
2023-04-22T18:29:20.923Z,94835.22
2023-04-22T18:32:04.922Z,94843.03
2023-04-22T18:34:48.158Z,94847.53
2023-04-22T18:37:34.903Z,94853.88
2023-04-22T18:40:22.131Z,94854.03
2023-04-22T18:43:05.493Z,94856.78
2023-04-22T18:45:48.773Z,94856.91
2023-04-22T18:48:32.661Z,94858.50
2023-04-22T18:51:16.198Z,94859.44
2023-04-22T18:53:59.526Z,94856.84
2023-04-22T18:56:46.063Z,94863.97
2023-04-22T18:59:29.441Z,94870.72
2023-04-22T19:02:17.420Z,94871.31
2023-04-22T19:05:00.709Z,94879.69
2023-04-22T19:07:45.235Z,94879.66
2023-04-22T19:10:28.729Z,94881.72
2023-04-22T19:13:22.936Z,94891.00
2023-04-22T19:16:12.216Z,94883.53
2023-04-22T19:18:55.572Z,94898.09
2023-04-22T19:21:39.518Z,94894.94
2023-04-22T19:24:22.952Z,94891.25
2023-04-22T19:27:12.333Z,94905.31
2023-04-22T19:29:57.034Z,94896.25
2023-04-22T19:32:40.541Z,94908.84
2023-04-22T19:35:25.016Z,94899.09
2023-04-22T19:38:08.776Z,94899.41
2023-04-22T19:40:52.148Z,94895.81
2023-04-22T19:43:36.532Z,94906.19
2023-04-22T19:46:21.701Z,94913.25
2023-04-22T19:49:05.482Z,94903.00
2023-04-22T19:51:49.748Z,94903.09
2023-04-22T19:54:33.889Z,94909.50
2023-04-22T19:57:17.756Z,94884.28
2023-04-22T20:00:01.377Z,94904.75
2023-04-22T20:02:47.521Z,94895.38
2023-04-22T20:05:31.895Z,94884.88
2023-04-22T20:08:16.409Z,94880.63
2023-04-22T20:11:01.028Z,94879.53
2023-04-22T20:13:46.171Z,94875.47
2023-04-22T20:16:31.449Z,94876.34
2023-04-22T20:19:16.773Z,94876.66
2023-04-22T20:22:01.942Z,94880.09
2023-04-22T20:24:46.758Z,94878.34
2023-04-22T20:27:30.918Z,94878.81
2023-04-22T20:30:14.771Z,94876.19
2023-04-22T20:32:58.319Z,94876.50
2023-04-22T20:35:43.885Z,94879.66
2023-04-22T20:38:30.942Z,94878.34
2023-04-22T20:41:14.639Z,94879.38
2023-04-22T20:43:58.168Z,94876.94
2023-04-22T20:46:41.261Z,94878.13
2023-04-22T20:49:25.454Z,94880.81
2023-04-22T20:52:11.255Z,94875.63
2023-04-22T20:55:00.718Z,94878.09
2023-04-22T20:57:44.252Z,94880.94
2023-04-22T21:00:27.910Z,94879.34
2023-04-22T21:03:14.766Z,94879.03
2023-04-22T21:05:59.336Z,94886.47
2023-04-22T21:08:44.334Z,94892.56
2023-04-22T21:11:28.581Z,94890.03
2023-04-22T21:14:12.834Z,94893.63
2023-04-22T21:17:02.930Z,94883.31
2023-04-22T21:19:48.947Z,94883.00
2023-04-22T21:22:33.042Z,94885.75
2023-04-22T21:25:22.660Z,94871.31
2023-04-22T21:28:06.385Z,94891.63
2023-04-22T21:30:51.286Z,94878.72
2023-04-22T21:33:34.428Z,94886.28
2023-04-22T21:36:17.872Z,94877.88
2023-04-22T21:39:02.791Z,94885.88
2023-04-22T21:41:47.626Z,94883.44
2023-04-22T21:44:30.834Z,94887.47
2023-04-22T21:47:13.899Z,94875.88
2023-04-22T21:49:57.014Z,94881.91
2023-04-22T21:52:40.196Z,94886.66
2023-04-22T21:55:23.363Z,94882.91
2023-04-22T21:58:07.983Z,94886.94
2023-04-22T22:00:51.180Z,94885.31
2023-04-22T22:03:35.271Z,94895.50
2023-04-22T22:06:18.510Z,94883.94
2023-04-22T22:09:01.681Z,94879.81
2023-04-22T22:11:44.786Z,94881.19
2023-04-22T22:14:29.387Z,94885.38
2023-04-22T22:17:12.859Z,94886.00
2023-04-22T22:19:57.264Z,94886.38
2023-04-22T22:22:40.825Z,94891.53
2023-04-22T22:25:24.054Z,94892.97
2023-04-22T22:28:07.153Z,94901.31
2023-04-22T22:30:51.833Z,94896.72
2023-04-22T22:33:35.001Z,94898.31
2023-04-22T22:36:18.151Z,94903.09
2023-04-22T22:39:01.395Z,94894.72
2023-04-22T22:41:44.525Z,94899.91
2023-04-22T22:44:27.833Z,94895.53
2023-04-22T22:47:12.548Z,94900.34
2023-04-22T22:49:55.706Z,94899.09
2023-04-22T22:52:38.902Z,94893.72
2023-04-22T22:55:22.003Z,94898.31
2023-04-22T22:58:05.241Z,94898.91
2023-04-22T23:00:50.022Z,94887.41
2023-04-22T23:03:37.432Z,94897.16
2023-04-22T23:06:20.850Z,94886.84
2023-04-22T23:09:03.993Z,94890.03
2023-04-22T23:11:48.430Z,94894.81
2023-04-22T23:14:33.348Z,94888.88
2023-04-22T23:17:17.363Z,94894.81
2023-04-22T23:20:02.717Z,94901.56
2023-04-22T23:22:46.915Z,94902.19
2023-04-22T23:25:33.004Z,94903.19
2023-04-22T23:28:17.034Z,94894.06
2023-04-22T23:31:01.342Z,94892.06
2023-04-22T23:33:46.458Z,94890.88
2023-04-22T23:36:33.165Z,94896.47
2023-04-22T23:39:16.647Z,94890.88
2023-04-22T23:41:59.800Z,94887.34
2023-04-22T23:44:43.091Z,94887.34
2023-04-22T23:47:26.749Z,94887.72
2023-04-22T23:50:10.805Z,94886.13
2023-04-22T23:52:55.389Z,94887.34
2023-04-22T23:55:39.079Z,94889.72
2023-04-22T23:58:22.549Z,94890.16
